createdAt,value
2023-04-18T00:02:09.054Z,21.67
2023-04-18T00:04:37.662Z,18.50
2023-04-18T00:07:06.458Z,24.83
2023-04-18T00:09:36.198Z,21.60
2023-04-18T00:12:04.951Z,21.90
2023-04-18T00:14:34.095Z,22.73
2023-04-18T00:17:02.863Z,20.53
2023-04-18T00:19:31.142Z,25.73
2023-04-18T00:21:59.880Z,24.23
2023-04-18T00:24:28.139Z,23.23
2023-04-18T00:26:58.393Z,21.33
2023-04-18T00:29:26.622Z,26.30
2023-04-18T00:31:54.935Z,22.13
2023-04-18T00:34:23.209Z,18.17
2023-04-18T00:36:51.503Z,24.57
2023-04-18T00:39:19.692Z,19.40
2023-04-18T00:41:47.898Z,20.17
2023-04-18T00:44:17.667Z,18.27
2023-04-18T00:46:45.983Z,16.93
2023-04-18T00:49:14.386Z,19.03
2023-04-18T00:51:42.595Z,16.23
2023-04-18T00:54:13.394Z,20.33
2023-04-18T00:56:41.989Z,20.33
2023-04-18T00:59:11.133Z,22.53
2023-04-18T01:01:41.576Z,20.00
2023-04-18T01:04:09.909Z,17.10
2023-04-18T01:06:38.332Z,23.43
2023-04-18T01:09:06.657Z,19.70
2023-04-18T01:11:35.961Z,22.40
2023-04-18T01:14:05.036Z,20.70
2023-04-18T01:16:33.754Z,20.23
2023-04-18T01:19:03.777Z,18.37
2023-04-18T01:21:33.845Z,19.77
2023-04-18T01:24:04.970Z,17.30
2023-04-18T01:26:34.822Z,22.23
2023-04-18T01:29:03.062Z,23.30
2023-04-18T01:31:31.424Z,22.83
2023-04-18T01:33:59.678Z,19.57
2023-04-18T01:36:28.185Z,20.03
2023-04-18T01:38:56.966Z,19.47
2023-04-18T01:41:25.238Z,19.60
2023-04-18T01:43:54.830Z,17.20
2023-04-18T01:46:23.442Z,18.03
2023-04-18T01:48:51.757Z,19.40
2023-04-18T01:51:20.081Z,24.17
2023-04-18T01:53:48.334Z,20.20
2023-04-18T01:56:16.654Z,16.93
2023-04-18T01:58:44.909Z,17.73
2023-04-18T02:01:14.810Z,20.83
2023-04-18T02:03:43.337Z,19.07
2023-04-18T02:06:11.832Z,28.23
2023-04-18T02:08:40.117Z,25.93
2023-04-18T02:11:11.262Z,20.03
2023-04-18T02:13:40.612Z,20.17
2023-04-18T02:16:13.600Z,22.07
2023-04-18T02:18:44.306Z,19.70
2023-04-18T02:21:12.568Z,11.70
2023-04-18T02:23:40.806Z,22.90
2023-04-18T02:26:09.050Z,20.77
2023-04-18T02:28:38.935Z,21.27
2023-04-18T02:31:07.356Z,23.00
2023-04-18T02:33:35.890Z,20.70
2023-04-18T02:36:05.839Z,19.90
2023-04-18T02:38:34.068Z,20.27
2023-04-18T02:41:02.295Z,18.20
2023-04-18T02:43:30.544Z,19.07
2023-04-18T02:45:58.900Z,18.00
2023-04-18T02:48:27.241Z,17.53
2023-04-18T02:50:55.592Z,21.03
2023-04-18T02:53:25.187Z,16.90
2023-04-18T02:55:53.517Z,26.93
2023-04-18T02:58:21.741Z,20.70
2023-04-18T03:00:50.492Z,19.97
2023-04-18T03:03:18.830Z,16.87
2023-04-18T03:05:47.086Z,25.27
2023-04-18T03:08:16.241Z,18.33
2023-04-18T03:10:45.900Z,19.50
2023-04-18T03:13:14.142Z,20.97
2023-04-18T03:15:42.372Z,19.57
2023-04-18T03:18:12.417Z,19.80
2023-04-18T03:20:41.001Z,24.30
2023-04-18T03:23:09.285Z,20.30
2023-04-18T03:25:37.571Z,20.80
2023-04-18T03:28:07.273Z,18.73
2023-04-18T03:30:35.490Z,22.77
2023-04-18T03:33:05.131Z,21.03
2023-04-18T03:35:33.471Z,19.40
2023-04-18T03:38:01.781Z,21.20
2023-04-18T03:40:30.047Z,20.43
2023-04-18T03:42:59.753Z,19.17
2023-04-18T03:45:29.458Z,20.33
2023-04-18T03:47:57.781Z,19.83
2023-04-18T03:50:26.557Z,23.07
2023-04-18T03:52:54.870Z,19.23
2023-04-18T03:55:23.282Z,18.80
2023-04-18T03:57:51.715Z,20.90
2023-04-18T04:00:20.186Z,20.73
2023-04-18T04:02:49.834Z,17.80
2023-04-18T04:05:18.205Z,20.93
2023-04-18T04:07:46.460Z,18.77
2023-04-18T04:10:14.754Z,18.57
2023-04-18T04:12:42.974Z,22.67
2023-04-18T04:15:12.123Z,16.50
2023-04-18T04:17:40.339Z,18.63
2023-04-18T04:20:11.822Z,18.80
2023-04-18T04:22:40.034Z,23.50
2023-04-18T04:25:08.584Z,20.77
2023-04-18T04:27:38.977Z,20.97
2023-04-18T04:30:09.557Z,20.97
2023-04-18T04:32:39.198Z,20.07
2023-04-18T04:35:08.400Z,21.23
2023-04-18T04:37:38.604Z,23.43
2023-04-18T04:40:09.288Z,18.50
2023-04-18T04:42:37.628Z,17.83
2023-04-18T04:45:08.194Z,19.50
2023-04-18T04:47:36.690Z,22.20
2023-04-18T04:50:07.628Z,18.30
2023-04-18T04:52:35.959Z,20.63
2023-04-18T04:55:05.810Z,21.27
2023-04-18T04:57:34.078Z,17.77
2023-04-18T05:00:02.472Z,19.47
2023-04-18T05:02:30.963Z,16.87
2023-04-18T05:04:59.461Z,16.80
2023-04-18T05:07:27.702Z,18.03
2023-04-18T05:09:56.153Z,23.00
2023-04-18T05:12:28.685Z,17.83
2023-04-18T05:14:56.984Z,18.70
2023-04-18T05:17:25.378Z,20.40
2023-04-18T05:19:53.673Z,22.57
2023-04-18T05:22:22.085Z,19.03
2023-04-18T05:24:50.286Z,16.13
2023-04-18T05:27:18.511Z,22.53
2023-04-18T05:29:49.325Z,21.17
2023-04-18T05:32:17.595Z,23.10
2023-04-18T05:34:45.953Z,27.27
2023-04-18T05:37:14.173Z,26.97
2023-04-18T05:39:43.013Z,26.90
2023-04-18T05:42:11.557Z,25.47
2023-04-18T05:44:39.764Z,26.10
2023-04-18T05:47:09.334Z,23.10
2023-04-18T05:49:37.588Z,26.07
2023-04-18T05:52:05.914Z,30.30
2023-04-18T05:54:34.143Z,23.03
2023-04-18T05:57:04.276Z,27.20
2023-04-18T05:59:32.781Z,26.17
2023-04-18T06:02:01.188Z,28.40
2023-04-18T06:04:30.982Z,24.23
2023-04-18T06:06:59.331Z,30.30
2023-04-18T06:09:27.567Z,29.63
2023-04-18T06:11:57.647Z,25.30
2023-04-18T06:14:26.058Z,29.37
2023-04-18T06:16:54.314Z,30.73
2023-04-18T06:19:22.532Z,29.90
2023-04-18T06:21:52.198Z,25.97
2023-04-18T06:24:20.603Z,28.40
2023-04-18T06:26:48.871Z,34.40
2023-04-18T06:29:18.048Z,25.43
2023-04-18T06:31:48.262Z,29.67
2023-04-18T06:34:16.572Z,18.77
2023-04-18T06:36:44.750Z,28.63
2023-04-18T06:39:14.402Z,31.43
2023-04-18T06:41:42.660Z,30.40
2023-04-18T06:44:10.991Z,29.50
2023-04-18T06:46:39.229Z,30.40
2023-04-18T06:49:07.526Z,27.30
2023-04-18T06:51:35.721Z,23.37
2023-04-18T06:54:04.100Z,28.73
2023-04-18T06:56:36.280Z,22.87
2023-04-18T06:59:04.715Z,31.73
2023-04-18T07:01:33.560Z,22.40
2023-04-18T07:04:01.983Z,19.80
2023-04-18T07:06:30.368Z,22.10
2023-04-18T07:09:00.867Z,29.83
2023-04-18T07:11:29.361Z,26.43
2023-04-18T07:13:58.917Z,34.03
2023-04-18T07:16:27.224Z,24.50
2023-04-18T07:18:55.413Z,23.73
2023-04-18T07:21:23.865Z,21.30
2023-04-18T07:23:52.112Z,23.20
2023-04-18T07:26:20.473Z,21.30
2023-04-18T07:28:50.589Z,26.63
2023-04-18T07:31:20.293Z,25.63
2023-04-18T07:33:48.715Z,23.23
2023-04-18T07:36:16.953Z,27.20
2023-04-18T07:38:46.257Z,22.47
2023-04-18T07:41:14.518Z,15.57
2023-04-18T07:43:44.811Z,19.57
2023-04-18T07:46:13.182Z,26.57
2023-04-18T07:48:43.237Z,19.10
2023-04-18T07:51:11.468Z,18.17
2023-04-18T07:53:40.977Z,27.00
2023-04-18T07:56:09.344Z,28.33
2023-04-18T07:58:37.645Z,24.33
2023-04-18T08:01:07.018Z,22.63
2023-04-18T08:03:36.620Z,23.90
2023-04-18T08:06:06.667Z,22.57
2023-04-18T08:08:34.937Z,21.33
2023-04-18T08:11:03.254Z,20.30
2023-04-18T08:13:31.439Z,21.33
2023-04-18T08:15:59.820Z,22.20
2023-04-18T08:18:28.121Z,23.87
2023-04-18T08:20:56.473Z,24.10
2023-04-18T08:23:26.073Z,23.57
2023-04-18T08:25:54.281Z,23.07
2023-04-18T08:28:22.543Z,16.13
2023-04-18T08:30:52.120Z,23.57
2023-04-18T08:33:20.496Z,20.90
2023-04-18T08:35:48.795Z,20.03
2023-04-18T08:38:17.349Z,22.33
2023-04-18T08:40:47.097Z,21.03
2023-04-18T08:43:16.290Z,20.70
2023-04-18T08:45:45.755Z,20.07
2023-04-18T08:48:14.303Z,21.10
2023-04-18T08:50:42.704Z,20.60
2023-04-18T08:53:10.981Z,19.87
2023-04-18T08:55:40.483Z,18.93
2023-04-18T08:58:12.389Z,23.83
2023-04-18T09:00:40.716Z,18.93
2023-04-18T09:03:09.138Z,23.50
2023-04-18T09:05:38.420Z,22.73
2023-04-18T09:08:23.631Z,16.90
2023-04-18T09:10:51.847Z,19.23
2023-04-18T09:13:39.483Z,21.60
2023-04-18T09:16:08.252Z,25.47
2023-04-18T09:18:36.687Z,18.50
2023-04-18T09:21:18.699Z,17.60
2023-04-18T09:23:47.369Z,17.63
2023-04-18T09:26:25.204Z,21.87
2023-04-18T09:28:54.768Z,19.87
2023-04-18T09:31:23.226Z,21.23
2023-04-18T09:33:54.128Z,18.27
2023-04-18T09:36:23.331Z,15.80
2023-04-18T09:38:53.840Z,13.90
2023-04-18T09:41:23.885Z,19.33
2023-04-18T09:43:52.207Z,16.03
2023-04-18T09:46:22.465Z,18.50
2023-04-18T09:48:50.766Z,13.63
2023-04-18T09:51:19.597Z,14.50
2023-04-18T09:53:50.161Z,15.33
2023-04-18T09:56:24.616Z,12.77
2023-04-18T09:58:57.352Z,14.67
2023-04-18T10:01:29.102Z,16.47
2023-04-18T10:03:57.936Z,14.97
2023-04-18T10:06:27.986Z,13.40
2023-04-18T10:08:56.307Z,10.80
2023-04-18T10:11:30.957Z,14.50
2023-04-18T10:14:00.351Z,14.13
2023-04-18T10:16:30.311Z,7.53
2023-04-18T10:18:58.581Z,13.07
2023-04-18T10:21:27.621Z,13.53
2023-04-18T10:23:55.912Z,15.03
2023-04-18T10:26:44.102Z,14.13
2023-04-18T10:29:12.541Z,13.17
2023-04-18T10:31:43.951Z,17.70
2023-04-18T10:34:17.488Z,13.70
2023-04-18T10:37:00.605Z,15.10
2023-04-18T10:39:29.949Z,7.57
2023-04-18T10:41:58.307Z,14.67
2023-04-18T10:44:27.886Z,15.90
2023-04-18T10:47:14.872Z,19.40
2023-04-18T10:49:54.596Z,16.10
2023-04-18T10:52:22.845Z,17.70
2023-04-18T10:54:54.888Z,16.83
2023-04-18T10:57:23.743Z,16.27
2023-04-18T10:59:52.532Z,13.20
2023-04-18T11:02:27.098Z,16.80
2023-04-18T11:05:01.143Z,9.80
2023-04-18T11:07:35.737Z,16.00
2023-04-18T11:10:04.099Z,14.40
2023-04-18T11:12:33.398Z,12.73
2023-04-18T11:15:03.882Z,15.00
2023-04-18T11:17:35.525Z,16.60
2023-04-18T11:20:09.074Z,15.40
2023-04-18T11:22:45.406Z,14.17
2023-04-18T11:25:13.652Z,12.67
2023-04-18T11:27:43.777Z,13.47
2023-04-18T11:30:12.575Z,13.00
2023-04-18T11:32:41.127Z,14.13
2023-04-18T11:35:12.182Z,11.83
2023-04-18T11:37:40.959Z,13.90
2023-04-18T11:40:10.869Z,11.80
2023-04-18T11:42:39.958Z,14.23
2023-04-18T11:45:11.156Z,14.90
2023-04-18T11:47:39.748Z,13.90
2023-04-18T11:50:09.139Z,15.20
2023-04-18T11:52:39.152Z,12.20
2023-04-18T11:55:18.642Z,17.53
2023-04-18T11:57:52.150Z,13.07
2023-04-18T12:00:22.186Z,14.40
2023-04-18T12:02:52.291Z,8.10
2023-04-18T12:05:27.158Z,10.77
2023-04-18T12:07:57.125Z,16.10
2023-04-18T12:10:26.997Z,12.50
2023-04-18T12:12:56.355Z,9.80
2023-04-18T12:15:27.104Z,19.10
2023-04-18T12:17:59.440Z,12.07
2023-04-18T12:20:35.926Z,14.30
2023-04-18T12:23:05.836Z,13.00
2023-04-18T12:25:35.004Z,13.90
2023-04-18T12:28:04.534Z,14.43
2023-04-18T12:30:35.940Z,13.40
2023-04-18T12:33:06.630Z,15.93
2023-04-18T12:35:35.144Z,14.90
2023-04-18T12:38:04.204Z,8.50
2023-04-18T12:40:33.698Z,12.80
2023-04-18T12:43:03.525Z,14.93
2023-04-18T12:45:32.620Z,14.60
2023-04-18T12:48:01.155Z,14.57
2023-04-18T12:50:29.476Z,13.23
2023-04-18T12:52:59.997Z,9.60
2023-04-18T12:55:28.510Z,19.80
2023-04-18T12:57:58.430Z,14.20
2023-04-18T13:00:28.238Z,13.40
2023-04-18T13:02:56.809Z,17.60
2023-04-18T13:05:27.336Z,16.37
2023-04-18T13:08:08.453Z,20.70
2023-04-18T13:10:44.283Z,17.47
2023-04-18T13:13:13.861Z,15.67
2023-04-18T13:15:42.490Z,15.07
2023-04-18T13:18:10.877Z,12.13
2023-04-18T13:20:39.035Z,16.80
2023-04-18T13:23:07.224Z,18.60
2023-04-18T13:25:35.520Z,16.23
2023-04-18T13:28:03.854Z,16.27
2023-04-18T13:30:35.590Z,16.30
2023-04-18T13:33:03.967Z,15.97
2023-04-18T13:35:32.323Z,13.17
2023-04-18T13:38:00.694Z,13.10
2023-04-18T13:40:29.022Z,14.43
2023-04-18T13:42:57.235Z,16.33
2023-04-18T13:45:25.540Z,15.40
2023-04-18T13:47:55.269Z,16.93
2023-04-18T13:50:24.016Z,14.57
2023-04-18T13:52:54.461Z,14.77
2023-04-18T13:55:22.694Z,15.63
2023-04-18T13:57:51.002Z,16.20
2023-04-18T14:00:20.124Z,13.43
2023-04-18T14:02:48.606Z,14.13
2023-04-18T14:05:18.244Z,15.20
2023-04-18T14:07:48.457Z,14.23
2023-04-18T14:10:17.054Z,13.40
2023-04-18T14:12:45.256Z,14.53
2023-04-18T14:15:13.722Z,13.03
2023-04-18T14:17:44.144Z,14.40
2023-04-18T14:20:15.568Z,13.90
2023-04-18T14:22:46.006Z,14.23
2023-04-18T14:25:14.354Z,12.70
2023-04-18T14:27:42.572Z,13.20
2023-04-18T14:30:11.358Z,12.63
2023-04-18T14:32:39.648Z,14.70
2023-04-18T14:35:08.249Z,13.53
2023-04-18T14:37:36.559Z,12.93
2023-04-18T14:40:08.160Z,14.20
2023-04-18T14:42:36.420Z,13.50
2023-04-18T14:45:05.155Z,12.43
2023-04-18T14:47:34.577Z,18.30
2023-04-18T14:50:02.913Z,12.30
2023-04-18T14:52:31.136Z,15.30
2023-04-18T14:54:59.361Z,13.90
2023-04-18T14:57:31.759Z,13.00
2023-04-18T14:59:59.954Z,17.00
2023-04-18T15:02:28.314Z,11.90
2023-04-18T15:04:56.824Z,7.90
2023-04-18T15:07:25.114Z,6.20
2023-04-18T15:09:53.394Z,12.60
2023-04-18T15:12:21.651Z,11.93
2023-04-18T15:14:51.371Z,13.97
2023-04-18T15:17:19.573Z,15.87
2023-04-18T15:19:48.334Z,19.37
2023-04-18T15:22:16.570Z,13.00
2023-04-18T15:24:44.890Z,14.60
2023-04-18T15:27:13.478Z,12.67
2023-04-18T15:29:41.716Z,19.80
2023-04-18T15:32:12.470Z,15.90
2023-04-18T15:34:40.762Z,13.87
2023-04-18T15:37:09.323Z,15.77
2023-04-18T15:39:38.535Z,16.03
2023-04-18T15:42:07.561Z,18.57
2023-04-18T15:44:35.798Z,13.70
2023-04-18T15:47:04.012Z,15.63
2023-04-18T15:49:33.555Z,17.27
2023-04-18T15:52:02.050Z,11.23
2023-04-18T15:54:30.367Z,14.73
2023-04-18T15:56:59.123Z,14.43
2023-04-18T15:59:27.822Z,16.40
2023-04-18T16:01:56.278Z,18.27
2023-04-18T16:04:25.332Z,18.80
2023-04-18T16:06:54.924Z,13.90
2023-04-18T16:09:23.252Z,21.17
2023-04-18T16:11:51.512Z,13.13
2023-04-18T16:14:19.818Z,14.57
2023-04-18T16:16:48.210Z,15.87
2023-04-18T16:19:16.829Z,16.67
2023-04-18T16:21:46.947Z,16.00
2023-04-18T16:24:17.862Z,15.37
2023-04-18T16:26:46.271Z,15.90
2023-04-18T16:29:14.527Z,14.17
2023-04-18T16:31:43.205Z,11.33
2023-04-18T16:34:13.327Z,14.87
2023-04-18T16:36:41.688Z,13.73
2023-04-18T16:39:09.886Z,10.57
2023-04-18T16:41:39.426Z,12.17
2023-04-18T16:44:07.703Z,12.40
2023-04-18T16:46:36.199Z,12.40
2023-04-18T16:49:04.887Z,14.43
2023-04-18T16:51:35.142Z,14.47
2023-04-18T16:54:03.480Z,11.70
2023-04-18T16:56:31.762Z,13.90
2023-04-18T16:59:01.351Z,14.90
2023-04-18T17:01:29.616Z,17.37
2023-04-18T17:03:58.004Z,12.50
2023-04-18T17:06:27.186Z,11.80
2023-04-18T17:08:55.715Z,14.17
2023-04-18T17:11:23.907Z,12.33
2023-04-18T17:13:52.116Z,13.73
2023-04-18T17:16:21.885Z,11.67
2023-04-18T17:18:50.209Z,16.53
2023-04-18T17:21:18.469Z,13.13
2023-04-18T17:23:47.473Z,14.37
2023-04-18T17:26:15.763Z,14.30
2023-04-18T17:28:44.051Z,15.53
2023-04-18T17:31:15.110Z,12.10
2023-04-18T17:33:44.673Z,13.40
2023-04-18T17:36:12.865Z,13.73
2023-04-18T17:38:41.727Z,13.43
2023-04-18T17:41:10.270Z,13.67
2023-04-18T17:43:38.467Z,11.10
2023-04-18T17:46:06.912Z,12.30
2023-04-18T17:48:35.238Z,11.00
2023-04-18T17:51:04.846Z,12.93
2023-04-18T17:53:33.057Z,13.07
2023-04-18T17:56:01.973Z,13.93
2023-04-18T17:58:30.440Z,10.33
2023-04-18T18:00:58.740Z,10.80
2023-04-18T18:03:27.210Z,13.10
2023-04-18T18:05:55.832Z,9.87
2023-04-18T18:08:25.702Z,11.00
2023-04-18T18:10:53.954Z,16.17
2023-04-18T18:13:22.180Z,12.40
2023-04-18T18:15:50.451Z,12.03
2023-04-18T18:18:18.601Z,12.00
2023-04-18T18:20:46.950Z,13.67
2023-04-18T18:23:15.234Z,10.47
2023-04-18T18:25:44.857Z,11.70
2023-04-18T18:28:13.142Z,12.03
2023-04-18T18:30:41.481Z,11.50
2023-04-18T18:33:09.955Z,11.83
2023-04-18T18:35:38.243Z,10.50
2023-04-18T18:38:06.465Z,12.87
2023-04-18T18:40:34.674Z,10.50
2023-04-18T18:43:04.243Z,12.27
2023-04-18T18:45:32.494Z,13.07
2023-04-18T18:48:00.741Z,12.53
2023-04-18T18:50:29.063Z,10.97
2023-04-18T18:52:57.289Z,11.20
2023-04-18T18:55:25.624Z,13.07
2023-04-18T18:57:53.833Z,12.50
2023-04-18T19:00:23.376Z,12.50
2023-04-18T19:02:51.669Z,13.20
2023-04-18T19:05:19.981Z,10.93
2023-04-18T19:07:48.270Z,14.17
2023-04-18T19:10:16.490Z,12.73
2023-04-18T19:12:44.795Z,17.60
2023-04-18T19:15:13.641Z,12.57
2023-04-18T19:17:43.195Z,11.33
2023-04-18T19:20:11.522Z,14.20
2023-04-18T19:22:40.073Z,14.10
2023-04-18T19:25:08.993Z,14.20
2023-04-18T19:27:37.215Z,13.23
2023-04-18T19:30:05.865Z,12.70
2023-04-18T19:32:34.094Z,14.00
2023-04-18T19:35:04.016Z,17.83
2023-04-18T19:37:32.198Z,14.37
2023-04-18T19:40:00.530Z,11.90
2023-04-18T19:42:28.902Z,18.20
2023-04-18T19:44:57.386Z,11.33
2023-04-18T19:47:25.859Z,17.03
2023-04-18T19:49:54.123Z,12.50
2023-04-18T19:52:23.931Z,14.03
2023-04-18T19:54:53.496Z,15.07
2023-04-18T19:57:21.670Z,12.27
2023-04-18T19:59:49.884Z,16.00
2023-04-18T20:02:18.086Z,15.57
2023-04-18T20:04:46.451Z,16.13
2023-04-18T20:07:14.718Z,12.57
2023-04-18T20:09:44.312Z,14.70
2023-04-18T20:12:12.580Z,18.70
2023-04-18T20:14:40.877Z,18.80
2023-04-18T20:17:09.088Z,17.23
2023-04-18T20:19:37.289Z,18.20
2023-04-18T20:22:05.902Z,13.97
2023-04-18T20:24:34.525Z,13.10
2023-04-18T20:27:04.099Z,13.27
2023-04-18T20:29:32.298Z,12.50
2023-04-18T20:32:00.631Z,10.33
2023-04-18T20:34:32.572Z,11.00
2023-04-18T20:37:00.853Z,11.67
2023-04-18T20:39:32.676Z,10.47
2023-04-18T20:42:04.164Z,13.33
2023-04-18T20:44:34.637Z,10.87
2023-04-18T20:47:03.019Z,10.90
2023-04-18T20:49:31.349Z,10.30
2023-04-18T20:51:59.749Z,11.90
2023-04-18T20:54:28.106Z,11.30
2023-04-18T20:56:56.507Z,12.53
2023-04-18T20:59:24.826Z,10.77
2023-04-18T21:01:57.583Z,9.77
2023-04-18T21:04:25.941Z,11.97
2023-04-18T21:06:54.228Z,10.93
2023-04-18T21:09:22.487Z,11.30
2023-04-18T21:11:50.874Z,11.90
2023-04-18T21:14:19.955Z,10.17
2023-04-18T21:16:48.237Z,11.40
2023-04-18T21:19:17.928Z,11.40
2023-04-18T21:21:46.276Z,12.40
2023-04-18T21:24:14.623Z,10.70
2023-04-18T21:26:43.128Z,10.37
2023-04-18T21:29:11.336Z,10.33
2023-04-18T21:31:39.633Z,10.83
2023-04-18T21:34:07.935Z,10.67
2023-04-18T21:36:39.960Z,12.00
2023-04-18T21:39:08.436Z,13.83
2023-04-18T21:41:36.774Z,9.17
2023-04-18T21:44:04.978Z,12.70
2023-04-18T21:46:33.322Z,9.67
2023-04-18T21:49:01.544Z,9.30
2023-04-18T21:51:29.890Z,10.63
2023-04-18T21:53:59.950Z,10.00
2023-04-18T21:56:28.148Z,11.70
2023-04-18T21:58:56.320Z,12.87
2023-04-18T22:01:24.553Z,13.33
2023-04-18T22:03:53.054Z,9.80
2023-04-18T22:06:23.061Z,11.33
2023-04-18T22:08:52.343Z,11.40
2023-04-18T22:11:23.588Z,12.13
2023-04-18T22:13:54.225Z,10.17
2023-04-18T22:16:22.982Z,6.80
2023-04-18T22:18:51.189Z,10.88
2023-04-18T22:21:19.397Z,9.03
2023-04-18T22:23:47.539Z,9.77
2023-04-18T22:26:15.991Z,12.00
2023-04-18T22:28:45.597Z,11.30
2023-04-18T22:31:13.817Z,13.67
2023-04-18T22:33:42.025Z,14.63
2023-04-18T22:36:10.382Z,11.97
2023-04-18T22:38:38.612Z,11.33
2023-04-18T22:41:07.820Z,12.53
2023-04-18T22:43:36.087Z,12.00
2023-04-18T22:46:05.701Z,12.37
2023-04-18T22:48:35.299Z,12.20
2023-04-18T22:51:05.526Z,12.80
2023-04-18T22:53:33.832Z,12.07
2023-04-18T22:56:02.113Z,10.53
2023-04-18T22:58:31.278Z,11.83
2023-04-18T23:00:59.439Z,12.97
2023-04-18T23:03:29.233Z,11.00
2023-04-18T23:05:57.562Z,9.60
2023-04-18T23:08:25.739Z,12.27
2023-04-18T23:10:54.012Z,13.37
2023-04-18T23:13:22.174Z,12.03
2023-04-18T23:15:50.419Z,12.63
2023-04-18T23:18:18.685Z,11.27
2023-04-18T23:20:48.230Z,12.90
2023-04-18T23:23:16.474Z,15.07
2023-04-18T23:25:45.173Z,12.50
2023-04-18T23:28:13.810Z,12.77
2023-04-18T23:30:42.067Z,10.93
2023-04-18T23:33:10.301Z,13.57
2023-04-18T23:35:38.655Z,15.07
2023-04-18T23:38:08.215Z,19.80
2023-04-18T23:40:36.494Z,12.30
2023-04-18T23:43:04.754Z,13.83
2023-04-18T23:45:33.026Z,11.73
2023-04-18T23:48:01.400Z,13.30
2023-04-18T23:50:29.634Z,16.00
2023-04-18T23:52:57.841Z,15.83
2023-04-18T23:55:27.757Z,13.97
2023-04-18T23:57:55.935Z,11.53
